Time;durP1;ratioP1;P1;durP2;ratioP2;P2;SDS_P1;SDS_P2;PMS_P1;PMS_P2;Temp;Humidity;BMP_temperature;BMP_pressure;BME280_temperature;BME280_humidity;BME280_pressure;Samples;Min_cycle;Max_cycle;Signal;HPM_P1;HPM_P2
2024/01/03 16:15:17;;;;;;;3.2;1;;;;;;;25.4;40.16113;93692.64;;;;
2024/01/03 16:16:17;;;;;;;3.2;1;;;;;;;25.4;40.16113;93692.64;;;;
2024/01/03 16:17:18;;;;;;;3.2;1;;;;;;;25.4;40.16113;93692.64;;;;
2024/01/03 16:18:18;;;;;;;3.2;1;;;;;;;25.4;40.16113;93692.64;;;;
2024/01/03 16:19:18;;;;;;;3.2;1;;;;;;;25.4;40.16113;93692.64;;;;
2024/01/03 16:20:19;;;;;;;3.2;1;;;;;;;25.4;40.16113;93692.64;;;;
2024/01/03 16:21:20;;;;;;;1.2;1.1;;;;;;;29.43;29.10449;93678.98;;;;
2024/01/03 16:22:20;;;;;;;1.2;1.1;;;;;;;29.43;29.10449;93678.98;;;;
2024/01/03 16:23:21;;;;;;;1.2;1.1;;;;;;;29.43;29.10449;93678.98;;;;
2024/01/03 16:24:22;;;;;;;1.2;1.1;;;;;;;29.43;29.10449;93678.98;;;;
2024/01/03 16:25:22;;;;;;;1.2;1.1;;;;;;;29.43;29.10449;93678.98;;;;
2024/01/03 16:26:23;;;;;;;3.2;1.2;;;;;;;29.23;29.50098;93685.29;;;;
2024/01/03 16:27:23;;;;;;;3.2;1.2;;;;;;;29.23;29.50098;93685.29;;;;
2024/01/03 16:28:24;;;;;;;3.2;1.2;;;;;;;29.23;29.50098;93685.29;;;;
2024/01/03 16:29:24;;;;;;;3.2;1.2;;;;;;;29.23;29.50098;93685.29;;;;
2024/01/03 16:30:25;;;;;;;3.2;1.2;;;;;;;29.23;29.50098;93685.29;;;;
2024/01/03 16:31:26;;;;;;;3.2;1.2;;;;;;;29.23;29.50098;93685.29;;;;
2024/01/03 16:32:27;;;;;;;3.2;1.2;;;;;;;29.23;29.50098;93685.29;;;;
2024/01/03 16:33:28;;;;;;;3.2;1.2;;;;;;;29.23;29.50098;93685.29;;;;
2024/01/03 16:34:28;;;;;;;3.2;1.2;;;;;;;29.23;29.50098;93685.29;;;;
2024/01/03 16:35:29;;;;;;;3.2;1.2;;;;;;;29.23;29.50098;93685.29;;;;
2024/01/03 16:36:29;;;;;;;3.2;1.2;;;;;;;29.23;29.50098;93685.29;;;;
2024/01/03 16:37:31;;;;;;;1.8;1.1;;;;;;;29.1;29.31152;93672.08;;;;
2024/01/03 16:38:32;;;;;;;1.8;1.1;;;;;;;29.1;29.31152;93672.08;;;;
2024/01/03 16:39:35;;;;;;;1.8;1.1;;;;;;;29.1;29.31152;93672.08;;;;
2024/01/03 16:40:36;;;;;;;1.8;1.1;;;;;;;29.1;29.31152;93672.08;;;;
2024/01/03 16:41:37;;;;;;;1.8;1.1;;;;;;;29.1;29.31152;93672.08;;;;
2024/01/03 16:42:38;;;;;;;1.8;1.1;;;;;;;29.1;29.31152;93672.08;;;;
2024/01/03 16:43:39;;;;;;;1.8;1.1;;;;;;;29.1;29.31152;93672.08;;;;
2024/01/03 16:44:40;;;;;;;1.8;1.1;;;;;;;29.1;29.31152;93672.08;;;;
2024/01/03 16:45:40;;;;;;;1.8;1.1;;;;;;;29.1;29.31152;93672.08;;;;
2024/01/03 16:46:41;;;;;;;1.8;1.1;;;;;;;29.1;29.31152;93672.08;;;;
2024/01/03 16:47:43;;;;;;;1.75;1.1;;;;;;;29.13;29.16504;93676.01;;;;
2024/01/03 16:48:43;;;;;;;1.75;1.1;;;;;;;29.13;29.16504;93676.01;;;;
2024/01/03 16:49:44;;;;;;;1.75;1.1;;;;;;;29.13;29.16504;93676.01;;;;
2024/01/03 16:50:45;;;;;;;1.75;1.1;;;;;;;29.13;29.16504;93676.01;;;;
2024/01/03 16:51:46;;;;;;;1.75;1.1;;;;;;;29.13;29.16504;93676.01;;;;
2024/01/03 16:52:47;;;;;;;1.75;1.1;;;;;;;29.13;29.16504;93676.01;;;;
2024/01/03 16:53:47;;;;;;;1.75;1.1;;;;;;;29.13;29.16504;93676.01;;;;
2024/01/03 16:54:48;;;;;;;1.75;1.1;;;;;;;29.13;29.16504;93676.01;;;;
2024/01/03 16:55:48;;;;;;;1.75;1.1;;;;;;;29.13;29.16504;93676.01;;;;
2024/01/03 16:56:49;;;;;;;1.75;1.1;;;;;;;29.13;29.16504;93676.01;;;;
2024/01/03 16:57:49;;;;;;;1.75;1.1;;;;;;;29.13;29.16504;93676.01;;;;
2024/01/03 16:58:50;;;;;;;2.35;1.1;;;;;;;28.83;29.54297;93653.36;;;;
2024/01/03 16:59:50;;;;;;;2.35;1.1;;;;;;;28.83;29.54297;93653.36;;;;
2024/01/03 17:00:52;;;;;;;2.35;1.1;;;;;;;28.83;29.54297;93653.36;;;;
2024/01/03 17:01:53;;;;;;;2.35;1.1;;;;;;;28.83;29.54297;93653.36;;;;
2024/01/03 17:02:55;;;;;;;2.35;1.1;;;;;;;28.83;29.54297;93653.36;;;;
2024/01/03 17:03:56;;;;;;;2.35;1.1;;;;;;;28.83;29.54297;93653.36;;;;
2024/01/03 17:04:57;;;;;;;2.35;1.1;;;;;;;28.83;29.54297;93653.36;;;;
2024/01/03 17:05:58;;;;;;;2.35;1.1;;;;;;;28.83;29.54297;93653.36;;;;
2024/01/03 17:06:58;;;;;;;2.35;1.1;;;;;;;28.83;29.54297;93653.36;;;;
2024/01/03 17:07:58;;;;;;;2.35;1.1;;;;;;;28.83;29.54297;93653.36;;;;
2024/01/03 17:08:59;;;;;;;1.2;1.1;;;;;;;28.74;29.67383;93659.08;;;;
2024/01/03 17:10:03;;;;;;;1.2;1.1;;;;;;;28.74;29.67383;93659.08;;;;
2024/01/03 17:11:08;;;;;;;1.2;1.1;;;;;;;28.74;29.67383;93659.08;;;;
2024/01/03 17:12:08;;;;;;;1.2;1.1;;;;;;;28.74;29.67383;93659.08;;;;
2024/01/03 17:13:09;;;;;;;1.2;1.1;;;;;;;28.74;29.67383;93659.08;;;;
2024/01/03 17:14:10;;;;;;;1.2;1.1;;;;;;;28.74;29.67383;93659.08;;;;
2024/01/03 17:15:10;;;;;;;1.2;1.1;;;;;;;28.74;29.67383;93659.08;;;;
2024/01/03 17:16:11;;;;;;;1.2;1.1;;;;;;;28.74;29.67383;93659.08;;;;
2024/01/03 17:17:12;;;;;;;1.2;1.1;;;;;;;28.74;29.67383;93659.08;;;;
2024/01/03 17:18:12;;;;;;;1.2;1.1;;;;;;;28.74;29.67383;93659.08;;;;
2024/01/03 17:19:12;;;;;;;1.2;1.1;;;;;;;28.74;29.67383;93659.08;;;;
2024/01/03 17:20:14;;;;;;;1.7;1.15;;;;;;;28.6;29.84668;93640.19;;;;
2024/01/03 17:21:14;;;;;;;1.7;1.15;;;;;;;28.6;29.84668;93640.19;;;;
2024/01/03 17:22:15;;;;;;;1.7;1.15;;;;;;;28.6;29.84668;93640.19;;;;
2024/01/03 17:23:16;;;;;;;1.7;1.15;;;;;;;28.6;29.84668;93640.19;;;;
2024/01/03 17:24:16;;;;;;;1.7;1.15;;;;;;;28.6;29.84668;93640.19;;;;
2024/01/03 17:25:16;;;;;;;1.7;1.15;;;;;;;28.6;29.84668;93640.19;;;;
2024/01/03 17:26:17;;;;;;;1.7;1.15;;;;;;;28.6;29.84668;93640.19;;;;
2024/01/03 17:27:18;;;;;;;1.7;1.15;;;;;;;28.6;29.84668;93640.19;;;;
2024/01/03 17:28:19;;;;;;;1.7;1.15;;;;;;;28.6;29.84668;93640.19;;;;
2024/01/03 17:29:19;;;;;;;1.7;1.15;;;;;;;28.6;29.84668;93640.19;;;;
2024/01/03 17:30:20;;;;;;;1.45;1.2;;;;;;;28.46;29.99609;93632.34;;;;
2024/01/03 17:31:20;;;;;;;1.45;1.2;;;;;;;28.46;29.99609;93632.34;;;;
2024/01/03 17:32:22;;;;;;;1.45;1.2;;;;;;;28.46;29.99609;93632.34;;;;
2024/01/03 17:33:23;;;;;;;1.45;1.2;;;;;;;28.46;29.99609;93632.34;;;;
2024/01/03 17:34:24;;;;;;;1.45;1.2;;;;;;;28.46;29.99609;93632.34;;;;
2024/01/03 17:35:24;;;;;;;1.45;1.2;;;;;;;28.46;29.99609;93632.34;;;;
2024/01/03 17:36:25;;;;;;;1.45;1.2;;;;;;;28.46;29.99609;93632.34;;;;
2024/01/03 17:37:25;;;;;;;1.45;1.2;;;;;;;28.46;29.99609;93632.34;;;;
2024/01/03 17:38:26;;;;;;;1.45;1.2;;;;;;;28.46;29.99609;93632.34;;;;
2024/01/03 17:39:26;;;;;;;1.45;1.2;;;;;;;28.46;29.99609;93632.34;;;;
2024/01/03 17:40:27;;;;;;;1.45;1.2;;;;;;;28.46;29.99609;93632.34;;;;
2024/01/03 17:41:29;;;;;;;2;1.1;;;;;;;28.42;29.99316;93627.23;;;;
2024/01/03 17:42:29;;;;;;;2;1.1;;;;;;;28.42;29.99316;93627.23;;;;
2024/01/03 17:43:30;;;;;;;2;1.1;;;;;;;28.42;29.99316;93627.23;;;;
2024/01/03 17:44:30;;;;;;;2;1.1;;;;;;;28.42;29.99316;93627.23;;;;
2024/01/03 17:45:31;;;;;;;2;1.1;;;;;;;28.42;29.99316;93627.23;;;;
2024/01/03 17:46:31;;;;;;;2;1.1;;;;;;;28.42;29.99316;93627.23;;;;
2024/01/03 17:47:32;;;;;;;1.65;1;;;;;;;28.83;29.83887;93625.98;;;;
2024/01/03 17:48:32;;;;;;;1.65;1;;;;;;;28.83;29.83887;93625.98;;;;
2024/01/03 17:49:35;;;;;;;2.05;1.2;;;;;;;28;30.94043;93623.38;;;;
2024/01/03 17:50:36;;;;;;;2.05;1.2;;;;;;;28;30.94043;93623.38;;;;
2024/01/03 17:51:36;;;;;;;2.05;1.2;;;;;;;28;30.94043;93623.38;;;;
2024/01/03 17:52:37;;;;;;;2.05;1.2;;;;;;;28;30.94043;93623.38;;;;
2024/01/03 17:53:38;;;;;;;2.05;1.2;;;;;;;28;30.94043;93623.38;;;;
2024/01/03 17:54:38;;;;;;;2.05;1.2;;;;;;;28;30.94043;93623.38;;;;
2024/01/03 17:55:39;;;;;;;2.05;1.2;;;;;;;28;30.94043;93623.38;;;;
2024/01/03 17:56:39;;;;;;;2.05;1.2;;;;;;;28;30.94043;93623.38;;;;
2024/01/03 17:57:40;;;;;;;2.05;1.2;;;;;;;28;30.94043;93623.38;;;;
2024/01/03 17:58:40;;;;;;;3.2;1.8;;;;;;;22.77;42.25098;93624.47;;;;
2024/01/03 17:59:41;;;;;;;3.2;1.8;;;;;;;22.77;42.25098;93624.47;;;;
2024/01/03 18:00:41;;;;;;;3.2;1.8;;;;;;;22.77;42.25098;93624.47;;;;
2024/01/03 18:01:42;;;;;;;3.2;1.8;;;;;;;22.77;42.25098;93624.47;;;;
2024/01/03 18:02:43;;;;;;;3.2;1.8;;;;;;;22.77;42.25098;93624.47;;;;
2024/01/03 18:03:44;;;;;;;3.2;1.8;;;;;;;22.77;42.25098;93624.47;;;;
2024/01/03 18:04:44;;;;;;;3.2;1.8;;;;;;;22.77;42.25098;93624.47;;;;
2024/01/03 18:05:45;;;;;;;3.2;1.8;;;;;;;22.77;42.25098;93624.47;;;;
2024/01/03 18:06:45;;;;;;;3.2;1.8;;;;;;;22.77;42.25098;93624.47;;;;
2024/01/03 18:07:48;;;;;;;3.2;1.8;;;;;;;22.77;42.25098;93624.47;;;;
2024/01/03 18:08:48;;;;;;;3.2;1.8;;;;;;;22.77;42.25098;93624.47;;;;
2024/01/03 18:09:49;;;;;;;3.2;1.8;;;;;;;22.77;42.25098;93624.47;;;;
2024/01/03 18:10:49;;;;;;;3.2;1.8;;;;;;;22.77;42.25098;93624.47;;;;
2024/01/03 18:11:51;;;;;;;3.2;1.8;;;;;;;22.77;42.25098;93624.47;;;;
2024/01/03 18:12:51;;;;;;;3.2;1.8;;;;;;;22.77;42.25098;93624.47;;;;
2024/01/03 18:13:51;;;;;;;3.2;1.8;;;;;;;22.77;42.25098;93624.47;;;;
2024/01/03 18:14:53;;;;;;;3.8;1.45;;;;;;;22.69;43.18164;93624.52;;;;
2024/01/03 18:15:53;;;;;;;3.8;1.45;;;;;;;22.69;43.18164;93624.52;;;;
2024/01/03 18:16:55;;;;;;;3.8;1.45;;;;;;;22.69;43.18164;93624.52;;;;
2024/01/03 18:18:04;;;;;;;3.8;1.45;;;;;;;22.69;43.18164;93624.52;;;;
2024/01/03 18:19:04;;;;;;;3.8;1.45;;;;;;;22.69;43.18164;93624.52;;;;
2024/01/03 18:20:05;;;;;;;3.8;1.45;;;;;;;22.69;43.18164;93624.52;;;;
2024/01/03 18:21:06;;;;;;;3.8;1.45;;;;;;;22.69;43.18164;93624.52;;;;
2024/01/03 18:22:08;;;;;;;3.8;1.45;;;;;;;22.69;43.18164;93624.52;;;;
2024/01/03 18:23:13;;;;;;;3.8;1.45;;;;;;;22.69;43.18164;93624.52;;;;
2024/01/03 18:24:14;;;;;;;3.8;1.45;;;;;;;22.69;43.18164;93624.52;;;;
2024/01/03 18:25:14;;;;;;;3.05;1.7;;;;;;;28.06;32.37402;93604.66;;;;
2024/01/03 18:26:15;;;;;;;3.05;1.7;;;;;;;28.06;32.37402;93604.66;;;;
2024/01/03 18:27:15;;;;;;;3.2;1.7;;;;;;;26.89;34.57227;93611.61;;;;
2024/01/03 18:28:16;;;;;;;3.2;1.7;;;;;;;26.89;34.57227;93611.61;;;;
2024/01/03 18:29:16;;;;;;;3.2;1.7;;;;;;;26.89;34.57227;93611.61;;;;
2024/01/03 18:30:17;;;;;;;3.2;1.7;;;;;;;26.89;34.57227;93611.61;;;;
2024/01/03 18:31:18;;;;;;;3.2;1.7;;;;;;;26.89;34.57227;93611.61;;;;
2024/01/03 18:32:18;;;;;;;3.2;1.7;;;;;;;26.89;34.57227;93611.61;;;;
2024/01/03 18:33:18;;;;;;;3.2;1.7;;;;;;;26.89;34.57227;93611.61;;;;
2024/01/03 18:34:19;;;;;;;3.2;1.7;;;;;;;26.89;34.57227;93611.61;;;;
2024/01/03 18:35:19;;;;;;;3.2;1.7;;;;;;;26.89;34.57227;93611.61;;;;
2024/01/03 18:36:21;;;;;;;3.2;1.7;;;;;;;26.89;34.57227;93611.61;;;;
2024/01/03 18:37:21;;;;;;;3.2;1.7;;;;;;;26.89;34.57227;93611.61;;;;
2024/01/03 18:38:22;;;;;;;2.6;1.55;;;;;;;26.03;35.27344;93605.45;;;;
2024/01/03 18:39:22;;;;;;;2.6;1.55;;;;;;;26.03;35.27344;93605.45;;;;
2024/01/03 18:40:22;;;;;;;2.6;1.55;;;;;;;26.03;35.27344;93605.45;;;;
2024/01/03 18:41:23;;;;;;;2.6;1.55;;;;;;;26.03;35.27344;93605.45;;;;
2024/01/03 18:42:23;;;;;;;2.6;1.55;;;;;;;26.03;35.27344;93605.45;;;;
2024/01/03 18:43:25;;;;;;;2.6;1.55;;;;;;;26.03;35.27344;93605.45;;;;
2024/01/03 18:44:26;;;;;;;2.6;1.55;;;;;;;26.03;35.27344;93605.45;;;;
2024/01/03 18:45:27;;;;;;;2.6;1.55;;;;;;;26.03;35.27344;93605.45;;;;
2024/01/03 18:46:28;;;;;;;2.6;1.55;;;;;;;26.03;35.27344;93605.45;;;;
2024/01/03 18:47:30;;;;;;;2.6;1.55;;;;;;;26.03;35.27344;93605.45;;;;
2024/01/03 18:48:31;;;;;;;2.4;1.5;;;;;;;25.15;36.87988;93624.25;;;;
2024/01/03 18:49:32;;;;;;;2.4;1.5;;;;;;;25.15;36.87988;93624.25;;;;
2024/01/03 18:50:32;;;;;;;2.4;1.5;;;;;;;25.15;36.87988;93624.25;;;;
2024/01/03 18:51:35;;;;;;;2.4;1.5;;;;;;;25.15;36.87988;93624.25;;;;
2024/01/03 18:52:35;;;;;;;2.4;1.5;;;;;;;25.15;36.87988;93624.25;;;;
2024/01/03 18:53:36;;;;;;;2.4;1.5;;;;;;;25.15;36.87988;93624.25;;;;
2024/01/03 18:54:36;;;;;;;2.4;1.5;;;;;;;25.15;36.87988;93624.25;;;;
2024/01/03 18:55:38;;;;;;;2.4;1.5;;;;;;;25.15;36.87988;93624.25;;;;
2024/01/03 18:56:40;;;;;;;2.4;1.5;;;;;;;25.15;36.87988;93624.25;;;;
2024/01/03 18:57:41;;;;;;;2.4;1.5;;;;;;;25.15;36.87988;93624.25;;;;
2024/01/03 18:58:41;;;;;;;2.4;1.5;;;;;;;25.15;36.87988;93624.25;;;;
2024/01/03 18:59:42;;;;;;;3.5;1.5;;;;;;;24.87;37.2959;93608.94;;;;
2024/01/03 19:00:43;;;;;;;3.5;1.5;;;;;;;24.87;37.2959;93608.94;;;;
2024/01/03 19:01:44;;;;;;;3.5;1.5;;;;;;;24.87;37.2959;93608.94;;;;
2024/01/03 19:02:46;;;;;;;3.5;1.5;;;;;;;24.87;37.2959;93608.94;;;;
2024/01/03 19:03:46;;;;;;;3.5;1.5;;;;;;;24.87;37.2959;93608.94;;;;
2024/01/03 19:04:47;;;;;;;3.5;1.5;;;;;;;24.87;37.2959;93608.94;;;;
2024/01/03 19:05:47;;;;;;;3.5;1.5;;;;;;;24.87;37.2959;93608.94;;;;
2024/01/03 19:06:48;;;;;;;3.5;1.5;;;;;;;24.87;37.2959;93608.94;;;;
2024/01/03 19:07:49;;;;;;;3.5;1.5;;;;;;;24.87;37.2959;93608.94;;;;
2024/01/03 19:08:49;;;;;;;3.5;1.5;;;;;;;24.87;37.2959;93608.94;;;;
2024/01/03 19:09:50;;;;;;;3.5;1.5;;;;;;;24.87;37.2959;93608.94;;;;
2024/01/03 19:10:50;;;;;;;2.85;1.5;;;;;;;24.66;37.71582;93612.51;;;;
2024/01/03 19:11:51;;;;;;;2.85;1.5;;;;;;;24.66;37.71582;93612.51;;;;
2024/01/03 19:12:52;;;;;;;2.85;1.5;;;;;;;24.66;37.71582;93612.51;;;;
2024/01/03 19:13:52;;;;;;;2.85;1.5;;;;;;;24.66;37.71582;93612.51;;;;
2024/01/03 19:14:53;;;;;;;2.85;1.5;;;;;;;24.66;37.71582;93612.51;;;;
2024/01/03 19:15:53;;;;;;;2.85;1.5;;;;;;;24.66;37.71582;93612.51;;;;
2024/01/03 19:16:54;;;;;;;2.85;1.5;;;;;;;24.66;37.71582;93612.51;;;;
2024/01/03 19:17:55;;;;;;;2.85;1.5;;;;;;;24.66;37.71582;93612.51;;;;
2024/01/03 19:18:56;;;;;;;2.85;1.5;;;;;;;24.66;37.71582;93612.51;;;;
2024/01/03 19:19:57;;;;;;;2.85;1.5;;;;;;;24.66;37.71582;93612.51;;;;
2024/01/03 19:20:57;;;;;;;3.1;1.6;;;;;;;24.98;37.27051;93638.42;;;;
2024/01/03 19:21:59;;;;;;;3.1;1.6;;;;;;;24.98;37.27051;93638.42;;;;
2024/01/03 19:22:59;;;;;;;3.1;1.6;;;;;;;24.98;37.27051;93638.42;;;;
2024/01/03 19:24:00;;;;;;;3.1;1.6;;;;;;;24.98;37.27051;93638.42;;;;
2024/01/03 19:25:00;;;;;;;3.1;1.6;;;;;;;24.98;37.27051;93638.42;;;;
2024/01/03 19:26:01;;;;;;;3.1;1.6;;;;;;;24.98;37.27051;93638.42;;;;
2024/01/03 19:27:02;;;;;;;3.1;1.6;;;;;;;24.98;37.27051;93638.42;;;;
2024/01/03 19:28:03;;;;;;;3.1;1.6;;;;;;;24.98;37.27051;93638.42;;;;
2024/01/03 19:29:04;;;;;;;3.1;1.6;;;;;;;24.98;37.27051;93638.42;;;;
2024/01/03 19:30:04;;;;;;;3.1;1.6;;;;;;;24.98;37.27051;93638.42;;;;
2024/01/03 19:31:06;;;;;;;3.1;1.6;;;;;;;24.98;37.27051;93638.42;;;;
2024/01/03 19:32:09;;;;;;;1.95;1.45;;;;;;;24.94;37.41406;93562.79;;;;
2024/01/03 19:33:09;;;;;;;1.95;1.45;;;;;;;24.94;37.41406;93562.79;;;;
2024/01/03 19:34:10;;;;;;;1.95;1.45;;;;;;;24.94;37.41406;93562.79;;;;
2024/01/03 19:35:12;;;;;;;1.95;1.45;;;;;;;24.94;37.41406;93562.79;;;;
2024/01/03 19:36:12;;;;;;;1.95;1.45;;;;;;;24.94;37.41406;93562.79;;;;
2024/01/03 19:37:13;;;;;;;1.95;1.45;;;;;;;24.94;37.41406;93562.79;;;;
2024/01/03 19:38:14;;;;;;;1.95;1.45;;;;;;;24.94;37.41406;93562.79;;;;
2024/01/03 19:39:14;;;;;;;1.95;1.45;;;;;;;24.94;37.41406;93562.79;;;;
2024/01/03 19:40:15;;;;;;;1.95;1.45;;;;;;;24.94;37.41406;93562.79;;;;
2024/01/03 19:41:16;;;;;;;1.95;1.45;;;;;;;24.94;37.41406;93562.79;;;;
2024/01/03 19:42:17;;;;;;;1.75;1.3;;;;;;;24.68;37.71777;93599.84;;;;
2024/01/03 19:43:20;;;;;;;1.75;1.3;;;;;;;24.68;37.71777;93599.84;;;;
2024/01/03 19:44:21;;;;;;;1.75;1.3;;;;;;;24.68;37.71777;93599.84;;;;
2024/01/03 19:45:21;;;;;;;1.75;1.3;;;;;;;24.68;37.71777;93599.84;;;;
2024/01/03 19:46:22;;;;;;;1.75;1.3;;;;;;;24.68;37.71777;93599.84;;;;
2024/01/03 19:47:23;;;;;;;1.75;1.3;;;;;;;24.68;37.71777;93599.84;;;;
2024/01/03 19:48:23;;;;;;;1.75;1.3;;;;;;;24.68;37.71777;93599.84;;;;
2024/01/03 19:49:24;;;;;;;1.75;1.3;;;;;;;24.68;37.71777;93599.84;;;;
2024/01/03 19:50:24;;;;;;;1.75;1.3;;;;;;;24.68;37.71777;93599.84;;;;
2024/01/03 19:51:25;;;;;;;1.75;1.3;;;;;;;24.68;37.71777;93599.84;;;;
2024/01/03 19:52:27;;;;;;;1.75;1.3;;;;;;;24.68;37.71777;93599.84;;;;
2024/01/03 19:53:27;;;;;;;2.15;1.5;;;;;;;24.51;37.96289;93663.39;;;;
2024/01/03 19:54:28;;;;;;;2.15;1.5;;;;;;;24.51;37.96289;93663.39;;;;
2024/01/03 19:55:28;;;;;;;2.15;1.5;;;;;;;24.51;37.96289;93663.39;;;;
2024/01/03 19:56:28;;;;;;;2.15;1.5;;;;;;;24.51;37.96289;93663.39;;;;
2024/01/03 19:57:31;;;;;;;2.15;1.5;;;;;;;24.51;37.96289;93663.39;;;;
2024/01/03 19:58:31;;;;;;;2.15;1.5;;;;;;;24.51;37.96289;93663.39;;;;
2024/01/03 19:59:32;;;;;;;2.15;1.5;;;;;;;24.51;37.96289;93663.39;;;;
2024/01/03 20:00:32;;;;;;;2.15;1.5;;;;;;;24.51;37.96289;93663.39;;;;
2024/01/03 20:01:33;;;;;;;2.15;1.5;;;;;;;24.51;37.96289;93663.39;;;;
2024/01/03 20:02:33;;;;;;;2.15;1.5;;;;;;;24.51;37.96289;93663.39;;;;
2024/01/03 20:03:34;;;;;;;3.4;1.6;;;;;;;24.44;38.05664;93711.03;;;;
2024/01/03 20:04:34;;;;;;;3.4;1.6;;;;;;;24.44;38.05664;93711.03;;;;
2024/01/03 20:05:37;;;;;;;3.4;1.6;;;;;;;24.44;38.05664;93711.03;;;;
2024/01/03 20:06:38;;;;;;;3.4;1.6;;;;;;;24.44;38.05664;93711.03;;;;
2024/01/03 20:07:38;;;;;;;3.4;1.6;;;;;;;24.44;38.05664;93711.03;;;;
2024/01/03 20:08:39;;;;;;;3.4;1.6;;;;;;;24.44;38.05664;93711.03;;;;
2024/01/03 20:09:39;;;;;;;3.4;1.6;;;;;;;24.44;38.05664;93711.03;;;;
2024/01/03 20:10:40;;;;;;;3.4;1.6;;;;;;;24.44;38.05664;93711.03;;;;
2024/01/03 20:11:40;;;;;;;3.4;1.6;;;;;;;24.44;38.05664;93711.03;;;;
2024/01/03 20:12:43;;;;;;;3.4;1.6;;;;;;;24.44;38.05664;93711.03;;;;
2024/01/03 20:13:45;;;;;;;3.4;1.6;;;;;;;24.44;38.05664;93711.03;;;;
2024/01/03 20:14:45;;;;;;;2.15;1.35;;;;;;;24.47;37.96973;93745.08;;;;
2024/01/03 20:15:46;;;;;;;2.15;1.35;;;;;;;24.47;37.96973;93745.08;;;;
2024/01/03 20:16:46;;;;;;;2.15;1.35;;;;;;;24.47;37.96973;93745.08;;;;
2024/01/03 20:17:46;;;;;;;2.15;1.35;;;;;;;24.47;37.96973;93745.08;;;;
2024/01/03 20:18:47;;;;;;;2.15;1.35;;;;;;;24.47;37.96973;93745.08;;;;
2024/01/03 20:19:47;;;;;;;2.15;1.35;;;;;;;24.47;37.96973;93745.08;;;;
2024/01/03 20:20:48;;;;;;;2.15;1.35;;;;;;;24.47;37.96973;93745.08;;;;
2024/01/03 20:21:48;;;;;;;2.15;1.35;;;;;;;24.47;37.96973;93745.08;;;;
2024/01/03 20:22:49;;;;;;;2.15;1.35;;;;;;;24.47;37.96973;93745.08;;;;
2024/01/03 20:23:49;;;;;;;2.15;1.35;;;;;;;24.47;37.96973;93745.08;;;;
2024/01/03 20:24:50;;;;;;;1.5;1.4;;;;;;;24.37;38.13965;93777.92;;;;
2024/01/03 20:25:50;;;;;;;1.5;1.4;;;;;;;24.37;38.13965;93777.92;;;;
2024/01/03 20:26:51;;;;;;;1.5;1.4;;;;;;;24.37;38.13965;93777.92;;;;
2024/01/03 20:27:52;;;;;;;1.5;1.4;;;;;;;24.37;38.13965;93777.92;;;;
2024/01/03 20:28:53;;;;;;;1.5;1.4;;;;;;;24.37;38.13965;93777.92;;;;
2024/01/03 20:29:53;;;;;;;1.5;1.4;;;;;;;24.37;38.13965;93777.92;;;;
2024/01/03 20:30:54;;;;;;;1.5;1.4;;;;;;;24.37;38.13965;93777.92;;;;
2024/01/03 20:31:54;;;;;;;1.5;1.4;;;;;;;24.37;38.13965;93777.92;;;;
2024/01/03 20:32:55;;;;;;;1.5;1.4;;;;;;;24.37;38.13965;93777.92;;;;
2024/01/03 20:33:56;;;;;;;1.5;1.4;;;;;;;24.37;38.13965;93777.92;;;;
2024/01/03 20:34:56;;;;;;;1.5;1.4;;;;;;;24.37;38.13965;93777.92;;;;
2024/01/03 20:35:56;;;;;;;1.9;1.35;;;;;;;24.3;38.30273;93788.9;;;;
2024/01/03 20:36:57;;;;;;;1.9;1.35;;;;;;;24.3;38.30273;93788.9;;;;
2024/01/03 20:37:57;;;;;;;1.9;1.35;;;;;;;24.3;38.30273;93788.9;;;;
2024/01/03 20:39:00;;;;;;;1.9;1.35;;;;;;;24.3;38.30273;93788.9;;;;
2024/01/03 20:40:01;;;;;;;1.9;1.35;;;;;;;24.3;38.30273;93788.9;;;;
2024/01/03 20:41:02;;;;;;;1.9;1.35;;;;;;;24.3;38.30273;93788.9;;;;
2024/01/03 20:42:03;;;;;;;1.9;1.35;;;;;;;24.3;38.30273;93788.9;;;;
2024/01/03 20:43:05;;;;;;;1.9;1.35;;;;;;;24.3;38.30273;93788.9;;;;
2024/01/03 20:44:06;;;;;;;1.9;1.35;;;;;;;24.3;38.30273;93788.9;;;;
2024/01/03 20:45:06;;;;;;;1.9;1.35;;;;;;;24.3;38.30273;93788.9;;;;
2024/01/03 20:46:07;;;;;;;1.8;1.4;;;;;;;24.3;38.38086;93796.61;;;;
2024/01/03 20:47:08;;;;;;;1.8;1.4;;;;;;;24.3;38.38086;93796.61;;;;
2024/01/03 20:48:08;;;;;;;1.8;1.4;;;;;;;24.3;38.38086;93796.61;;;;
2024/01/03 20:49:09;;;;;;;1.8;1.4;;;;;;;24.3;38.38086;93796.61;;;;
2024/01/03 20:50:10;;;;;;;1.8;1.4;;;;;;;24.3;38.38086;93796.61;;;;
2024/01/03 20:51:10;;;;;;;1.8;1.4;;;;;;;24.3;38.38086;93796.61;;;;
2024/01/03 20:52:14;;;;;;;1.8;1.4;;;;;;;24.3;38.38086;93796.61;;;;
2024/01/03 20:53:17;;;;;;;1.8;1.4;;;;;;;24.3;38.38086;93796.61;;;;
2024/01/03 20:54:17;;;;;;;1.8;1.4;;;;;;;24.3;38.38086;93796.61;;;;
2024/01/03 20:55:18;;;;;;;1.8;1.4;;;;;;;24.3;38.38086;93796.61;;;;
2024/01/03 20:56:18;;;;;;;1.8;1.4;;;;;;;24.3;38.38086;93796.61;;;;
2024/01/03 20:57:20;;;;;;;1.4;1.3;;;;;;;24.36;38.13867;93791.62;;;;
2024/01/03 20:58:20;;;;;;;1.4;1.3;;;;;;;24.36;38.13867;93791.62;;;;
2024/01/03 20:59:21;;;;;;;1.4;1.3;;;;;;;24.36;38.13867;93791.62;;;;
2024/01/03 21:00:21;;;;;;;1.4;1.3;;;;;;;24.36;38.13867;93791.62;;;;
2024/01/03 21:01:22;;;;;;;1.4;1.3;;;;;;;24.36;38.13867;93791.62;;;;
2024/01/03 21:02:22;;;;;;;1.4;1.3;;;;;;;24.36;38.13867;93791.62;;;;
2024/01/03 21:03:23;;;;;;;1.4;1.3;;;;;;;24.36;38.13867;93791.62;;;;
2024/01/03 21:04:23;;;;;;;1.4;1.3;;;;;;;24.36;38.13867;93791.62;;;;
2024/01/03 21:05:24;;;;;;;1.4;1.3;;;;;;;24.36;38.13867;93791.62;;;;
2024/01/03 21:06:24;;;;;;;1.4;1.3;;;;;;;24.36;38.13867;93791.62;;;;
2024/01/03 21:07:25;;;;;;;1.45;1.35;;;;;;;24.16;38.39258;93822.96;;;;
2024/01/03 21:08:25;;;;;;;1.45;1.35;;;;;;;24.16;38.39258;93822.96;;;;
2024/01/03 21:09:26;;;;;;;1.45;1.35;;;;;;;24.16;38.39258;93822.96;;;;
2024/01/03 21:10:26;;;;;;;1.45;1.35;;;;;;;24.16;38.39258;93822.96;;;;
2024/01/03 21:11:27;;;;;;;1.45;1.35;;;;;;;24.16;38.39258;93822.96;;;;
2024/01/03 21:12:27;;;;;;;1.45;1.35;;;;;;;24.16;38.39258;93822.96;;;;
2024/01/03 21:13:28;;;;;;;1.45;1.35;;;;;;;24.16;38.39258;93822.96;;;;
2024/01/03 21:14:29;;;;;;;1.45;1.35;;;;;;;24.16;38.39258;93822.96;;;;
2024/01/03 21:15:29;;;;;;;1.45;1.35;;;;;;;24.16;38.39258;93822.96;;;;
2024/01/03 21:16:31;;;;;;;1.45;1.35;;;;;;;24.16;38.39258;93822.96;;;;
2024/01/03 21:17:32;;;;;;;1.45;1.35;;;;;;;24.16;38.39258;93822.96;;;;
2024/01/03 21:18:33;;;;;;;2.3;1.4;;;;;;;24.1;38.36426;93799.18;;;;
2024/01/03 21:19:33;;;;;;;2.3;1.4;;;;;;;24.1;38.36426;93799.18;;;;
2024/01/03 21:20:34;;;;;;;2.3;1.4;;;;;;;24.1;38.36426;93799.18;;;;
2024/01/03 21:21:34;;;;;;;2.3;1.4;;;;;;;24.1;38.36426;93799.18;;;;
2024/01/03 21:22:35;;;;;;;2.3;1.4;;;;;;;24.1;38.36426;93799.18;;;;
2024/01/03 21:23:35;;;;;;;2.3;1.4;;;;;;;24.1;38.36426;93799.18;;;;
2024/01/03 21:24:37;;;;;;;2.3;1.4;;;;;;;24.1;38.36426;93799.18;;;;
2024/01/03 21:25:38;;;;;;;2.3;1.4;;;;;;;24.1;38.36426;93799.18;;;;
2024/01/03 21:26:38;;;;;;;2.3;1.4;;;;;;;24.1;38.36426;93799.18;;;;
2024/01/03 21:27:40;;;;;;;2.3;1.4;;;;;;;24.1;38.36426;93799.18;;;;
2024/01/03 21:28:41;;;;;;;3.85;1.9;;;;;;;24.11;38.94727;93797.65;;;;
2024/01/03 21:29:42;;;;;;;3.85;1.9;;;;;;;24.11;38.94727;93797.65;;;;
2024/01/03 21:30:43;;;;;;;3.85;1.9;;;;;;;24.11;38.94727;93797.65;;;;
2024/01/03 21:31:43;;;;;;;3.85;1.9;;;;;;;24.11;38.94727;93797.65;;;;
2024/01/03 21:32:44;;;;;;;3.85;1.9;;;;;;;24.11;38.94727;93797.65;;;;
2024/01/03 21:33:44;;;;;;;3.85;1.9;;;;;;;24.11;38.94727;93797.65;;;;
2024/01/03 21:34:44;;;;;;;3.85;1.9;;;;;;;24.11;38.94727;93797.65;;;;
2024/01/03 21:35:45;;;;;;;3.85;1.9;;;;;;;24.11;38.94727;93797.65;;;;
2024/01/03 21:36:45;;;;;;;3.85;1.9;;;;;;;24.11;38.94727;93797.65;;;;
2024/01/03 21:37:46;;;;;;;3.85;1.9;;;;;;;24.11;38.94727;93797.65;;;;
2024/01/03 21:38:47;;;;;;;3.85;1.9;;;;;;;24.11;38.94727;93797.65;;;;
2024/01/03 21:39:47;;;;;;;4.5;2.1;;;;;;;24.13;39.9248;93809.31;;;;
2024/01/03 21:40:48;;;;;;;4.5;2.1;;;;;;;24.13;39.9248;93809.31;;;;
2024/01/03 21:41:48;;;;;;;4.5;2.1;;;;;;;24.13;39.9248;93809.31;;;;
2024/01/03 21:42:49;;;;;;;4.5;2.1;;;;;;;24.13;39.9248;93809.31;;;;
2024/01/03 21:43:49;;;;;;;4.5;2.1;;;;;;;24.13;39.9248;93809.31;;;;
2024/01/03 21:44:50;;;;;;;4.5;2.1;;;;;;;24.13;39.9248;93809.31;;;;
2024/01/03 21:45:51;;;;;;;4.5;2.1;;;;;;;24.13;39.9248;93809.31;;;;
2024/01/03 21:46:53;;;;;;;4.5;2.1;;;;;;;24.13;39.9248;93809.31;;;;
2024/01/03 21:47:54;;;;;;;4.5;2.1;;;;;;;24.13;39.9248;93809.31;;;;
2024/01/03 21:48:54;;;;;;;4.5;2.1;;;;;;;24.13;39.9248;93809.31;;;;
2024/01/03 21:49:55;;;;;;;3.5;1.75;;;;;;;24.09;39.84375;93817.86;;;;
2024/01/03 21:50:55;;;;;;;3.5;1.75;;;;;;;24.09;39.84375;93817.86;;;;
2024/01/03 21:51:56;;;;;;;3.5;1.75;;;;;;;24.09;39.84375;93817.86;;;;
2024/01/03 21:52:57;;;;;;;3.5;1.75;;;;;;;24.09;39.84375;93817.86;;;;
2024/01/03 21:53:57;;;;;;;3.5;1.75;;;;;;;24.09;39.84375;93817.86;;;;
2024/01/03 21:54:58;;;;;;;3.5;1.75;;;;;;;24.09;39.84375;93817.86;;;;
2024/01/03 21:55:58;;;;;;;3.5;1.75;;;;;;;24.09;39.84375;93817.86;;;;
2024/01/03 21:56:59;;;;;;;3.5;1.75;;;;;;;24.09;39.84375;93817.86;;;;
2024/01/03 21:58:00;;;;;;;3.5;1.75;;;;;;;24.09;39.84375;93817.86;;;;
2024/01/03 21:59:00;;;;;;;3.5;1.75;;;;;;;24.09;39.84375;93817.86;;;;
2024/01/03 22:00:01;;;;;;;3.5;1.75;;;;;;;24.09;39.84375;93817.86;;;;
2024/01/03 22:01:01;;;;;;;5.1;2;;;;;;;24.01;39.74609;93832.23;;;;
2024/01/03 22:02:02;;;;;;;5.1;2;;;;;;;24.01;39.74609;93832.23;;;;
2024/01/03 22:03:02;;;;;;;5.1;2;;;;;;;24.01;39.74609;93832.23;;;;
2024/01/03 22:04:03;;;;;;;5.1;2;;;;;;;24.01;39.74609;93832.23;;;;
2024/01/03 22:05:04;;;;;;;5.1;2;;;;;;;24.01;39.74609;93832.23;;;;
2024/01/03 22:06:08;;;;;;;5.1;2;;;;;;;24.01;39.74609;93832.23;;;;
2024/01/03 22:07:08;;;;;;;5.1;2;;;;;;;24.01;39.74609;93832.23;;;;
2024/01/03 22:08:09;;;;;;;5.1;2;;;;;;;24.01;39.74609;93832.23;;;;